Kirby, Arkansas
Current Conditions -  °F | °C
As of 1:53 AM on Thursday 29 Jan 2015 (Local Time) from KMWT Reporting Station
Few Clouds Few Clouds  
Wind Chill: 64°   Ceiling: Unl
Heat Index: 64°   Visibility: 10mi
Dew Point: 43°   Wind: 8mph
Humidity: 46%   Direction: 230°SW
Pressure: 30"   Gusts: NA
Location:  34.25°N, 93.64°W
Report Text: KMWT 290753Z AUTO 23007KT 190V280 10SM FEW100 18/06 A3000 RMK AO2 SLP154 T01780061
Loading
Personal Weather Stations






























Interactive Weather Map New forecast layout! Learn more

10-Day Weather Forecast

Advertisements
Track Severe Weather on mobile